createdAt,value
2018-04-16T00:00:25.758Z,33.40
2018-04-16T00:02:52.550Z,33.00
2018-04-16T00:05:19.291Z,33.90
2018-04-16T00:07:46.081Z,34.33
2018-04-16T00:10:12.830Z,34.10
2018-04-16T00:12:39.537Z,35.33
2018-04-16T00:15:06.243Z,35.30
2018-04-16T00:17:33.783Z,30.93
2018-04-16T00:20:00.544Z,33.07
2018-04-16T00:22:27.296Z,32.93
2018-04-16T00:24:54.848Z,33.63
2018-04-16T00:27:21.537Z,33.87
2018-04-16T00:29:48.230Z,33.10
2018-04-16T00:32:21.139Z,34.40
2018-04-16T00:34:54.706Z,31.73
2018-04-16T00:37:27.513Z,32.30
2018-04-16T00:40:00.239Z,31.93
2018-04-16T00:42:32.984Z,33.07
2018-04-16T00:45:05.822Z,34.43
2018-04-16T00:47:38.419Z,44.80
2018-04-16T00:50:11.226Z,49.07
2018-04-16T00:52:44.126Z,48.50
2018-04-16T00:55:16.970Z,48.10
2018-04-16T00:57:49.625Z,43.90
2018-04-16T01:00:23.202Z,40.80
2018-04-16T01:02:56.109Z,41.30
2018-04-16T01:05:29.659Z,39.93
2018-04-16T01:08:02.478Z,40.43
2018-04-16T01:10:35.263Z,37.00
2018-04-16T01:13:08.111Z,40.50
2018-04-16T01:15:40.958Z,39.90
2018-04-16T01:18:14.539Z,35.37
2018-04-16T01:20:47.377Z,33.70
2018-04-16T01:23:20.229Z,34.23
2018-04-16T01:25:52.989Z,34.50
2018-04-16T01:28:25.887Z,32.50
2018-04-16T01:30:58.653Z,33.83
2018-04-16T01:33:31.535Z,33.27
2018-04-16T01:36:04.429Z,31.33
2018-04-16T01:38:37.147Z,32.00
2018-04-16T01:41:09.815Z,32.70
2018-04-16T01:43:42.684Z,34.20
2018-04-16T01:46:15.352Z,34.40
2018-04-16T01:48:48.183Z,32.30
2018-04-16T01:51:20.964Z,33.27
2018-04-16T01:53:53.746Z,34.57
2018-04-16T01:56:27.087Z,32.90
2018-04-16T02:02:01.966Z,33.47
2018-04-16T02:04:34.806Z,32.77
2018-04-16T02:07:07.487Z,32.77
2018-04-16T02:09:40.332Z,32.60
2018-04-16T02:12:13.123Z,35.70
2018-04-16T02:14:45.970Z,33.80
2018-04-16T02:17:19.536Z,34.00
2018-04-16T02:19:52.296Z,34.10
2018-04-16T02:22:25.206Z,33.00
2018-04-16T02:24:58.719Z,33.90
2018-04-16T02:27:31.590Z,31.13
2018-04-16T02:30:04.310Z,33.57
2018-04-16T02:32:37.145Z,35.10
2018-04-16T02:35:09.921Z,37.23
2018-04-16T02:37:42.705Z,33.40
2018-04-16T02:40:15.462Z,34.33
2018-04-16T02:42:48.305Z,34.13
2018-04-16T02:45:21.149Z,34.63
2018-04-16T02:47:54.551Z,34.43
2018-04-16T02:50:27.413Z,34.60
2018-04-16T02:53:00.205Z,33.70
2018-04-16T02:55:32.990Z,35.33
2018-04-16T02:58:05.606Z,32.97
2018-04-16T03:00:38.437Z,34.97
2018-04-16T03:03:11.170Z,36.13
2018-04-16T03:05:43.873Z,36.27
2018-04-16T03:08:16.640Z,34.23
2018-04-16T03:10:49.454Z,36.47
2018-04-16T03:13:22.284Z,36.37
2018-04-16T03:15:55.205Z,36.40
2018-04-16T03:18:28.744Z,37.53
2018-04-16T03:21:01.560Z,36.70
2018-04-16T03:23:34.305Z,35.80
2018-04-16T03:26:06.920Z,34.77
2018-04-16T03:28:39.816Z,36.03
2018-04-16T03:31:12.702Z,36.10
2018-04-16T03:33:45.501Z,37.00
2018-04-16T03:36:18.348Z,36.50
2018-04-16T03:38:51.004Z,39.17
2018-04-16T03:41:23.854Z,38.57
2018-04-16T03:43:56.692Z,37.70
2018-04-16T03:46:29.470Z,38.53
2018-04-16T03:49:02.124Z,36.90
2018-04-16T03:51:29.637Z,36.20
2018-04-16T03:53:56.394Z,38.03
2018-04-16T03:56:24.008Z,34.93
2018-04-16T03:58:50.872Z,36.37
2018-04-16T04:01:17.652Z,37.17
2018-04-16T04:03:44.434Z,37.00
2018-04-16T04:06:12.104Z,35.80
2018-04-16T04:08:39.595Z,34.77
2018-04-16T04:11:06.297Z,38.20
2018-04-16T04:13:32.997Z,38.07
2018-04-16T04:15:59.747Z,38.93
2018-04-16T04:18:26.412Z,43.00
2018-04-16T04:20:53.165Z,41.07
2018-04-16T04:23:38.022Z,43.53
2018-04-16T04:26:22.882Z,40.80
2018-04-16T04:31:53.685Z,40.60
2018-04-16T04:34:21.779Z,42.53
2018-04-16T04:36:48.308Z,44.40
2018-04-16T04:39:15.559Z,42.53
2018-04-16T04:41:42.809Z,42.40
2018-04-16T04:44:09.352Z,43.23
2018-04-16T04:46:35.873Z,41.80
2018-04-16T04:49:02.423Z,43.07
2018-04-16T04:51:28.961Z,43.80
2018-04-16T04:53:55.473Z,43.27
2018-04-16T04:56:21.954Z,41.90
2018-04-16T04:58:49.213Z,39.23
2018-04-16T05:01:16.493Z,39.93
2018-04-16T05:03:43.078Z,38.80
2018-04-16T05:06:09.642Z,36.80
2018-04-16T05:08:36.929Z,36.60
2018-04-16T05:11:03.421Z,38.83
2018-04-16T05:13:29.909Z,38.70
2018-04-16T05:15:56.420Z,38.30
2018-04-16T05:18:23.686Z,46.70
2018-04-16T05:20:50.183Z,41.67
2018-04-16T05:23:16.785Z,43.30
2018-04-16T05:25:43.334Z,40.23
2018-04-16T05:28:09.868Z,39.90
2018-04-16T05:30:38.013Z,41.20
2018-04-16T05:33:05.359Z,38.23
2018-04-16T05:35:32.185Z,39.50
2018-04-16T05:37:58.718Z,36.70
2018-04-16T05:40:25.237Z,38.60
2018-04-16T05:42:51.769Z,39.03
2018-04-16T05:45:18.378Z,36.93
2018-04-16T05:47:44.860Z,35.17
2018-04-16T05:50:11.389Z,34.87
2018-04-16T05:52:37.989Z,36.40
2018-04-16T05:55:05.231Z,34.80
2018-04-16T05:57:31.747Z,35.20
2018-04-16T05:59:58.326Z,34.60
2018-04-16T06:02:25.580Z,34.17
2018-04-16T06:04:52.815Z,32.00
2018-04-16T06:07:19.342Z,33.67
2018-04-16T06:09:45.849Z,31.07
2018-04-16T06:12:12.382Z,30.63
2018-04-16T06:14:38.924Z,31.00
2018-04-16T06:17:05.463Z,30.80
2018-04-16T06:19:32.777Z,31.20
2018-04-16T06:21:59.324Z,32.60
2018-04-16T06:24:25.824Z,33.10
2018-04-16T06:26:52.302Z,31.40
2018-04-16T06:29:18.817Z,27.90
2018-04-16T06:31:45.349Z,28.70
2018-04-16T06:34:11.857Z,28.57
2018-04-16T06:36:38.360Z,28.20
2018-04-16T06:39:05.643Z,28.10
2018-04-16T06:41:32.135Z,29.97
2018-04-16T06:43:58.631Z,28.17
2018-04-16T06:46:25.130Z,26.90
2018-04-16T06:48:52.423Z,26.70
2018-04-16T06:51:19.021Z,25.27
2018-04-16T06:53:45.512Z,29.63
2018-04-16T06:56:12.037Z,28.10
2018-04-16T06:58:38.554Z,30.03
2018-04-16T07:01:05.799Z,26.00
2018-04-16T07:03:33.042Z,27.37
2018-04-16T07:05:59.598Z,26.23
2018-04-16T07:08:26.868Z,26.07
2018-04-16T07:10:54.121Z,28.63
2018-04-16T07:13:21.387Z,26.60
2018-04-16T07:15:48.617Z,27.00
2018-04-16T07:18:15.908Z,26.40
2018-04-16T07:20:44.097Z,27.10
2018-04-16T07:23:10.582Z,24.57
2018-04-16T07:25:37.093Z,24.40
2018-04-16T07:28:03.640Z,25.20
2018-04-16T07:30:30.157Z,23.47
2018-04-16T07:32:56.662Z,24.60
2018-04-16T07:35:23.889Z,24.83
2018-04-16T07:37:50.377Z,24.57
2018-04-16T07:40:16.927Z,23.20
2018-04-16T07:42:43.441Z,25.17
2018-04-16T07:45:10.767Z,23.83
2018-04-16T07:47:37.264Z,22.07
2018-04-16T07:50:03.788Z,23.27
2018-04-16T07:52:30.299Z,25.50
2018-04-16T07:54:56.779Z,25.60
2018-04-16T07:57:23.293Z,24.10
2018-04-16T07:59:50.524Z,24.67
2018-04-16T08:02:17.051Z,25.20
2018-04-16T08:04:43.577Z,25.87
2018-04-16T08:07:10.111Z,26.37
2018-04-16T08:09:36.621Z,26.30
2018-04-16T08:12:03.212Z,25.00
2018-04-16T08:14:29.708Z,25.40
2018-04-16T08:16:56.233Z,25.93
2018-04-16T08:19:23.553Z,25.10
2018-04-16T08:21:51.704Z,25.30
2018-04-16T08:24:19.839Z,22.27
2018-04-16T08:26:48.001Z,21.40
2018-04-16T08:29:16.145Z,22.90
2018-04-16T08:31:44.333Z,21.90
2018-04-16T08:34:12.499Z,20.73
2018-04-16T08:36:40.664Z,22.50
2018-04-16T08:39:08.814Z,23.37
2018-04-16T08:41:36.996Z,22.17
2018-04-16T08:44:05.328Z,21.80
2018-04-16T08:46:33.501Z,20.90
2018-04-16T08:49:01.683Z,20.90
2018-04-16T08:51:29.857Z,22.73
2018-04-16T08:53:58.014Z,22.70
2018-04-16T08:56:26.209Z,23.23
2018-04-16T08:58:54.337Z,21.60
2018-04-16T09:01:22.494Z,23.77
2018-04-16T09:03:50.652Z,22.63
2018-04-16T09:06:18.783Z,22.60
2018-04-16T09:08:46.976Z,23.63
2018-04-16T09:11:15.247Z,23.93
2018-04-16T09:13:43.486Z,23.53
2018-04-16T09:16:11.672Z,23.67
2018-04-16T09:18:39.882Z,22.73
2018-04-16T09:21:08.048Z,23.70
2018-04-16T09:23:36.175Z,23.77
2018-04-16T09:26:04.546Z,23.97
2018-04-16T09:28:32.696Z,23.37
2018-04-16T09:31:00.853Z,21.33
2018-04-16T09:33:29.006Z,22.23
2018-04-16T09:35:57.136Z,21.03
2018-04-16T09:38:25.324Z,19.70
2018-04-16T09:40:53.528Z,21.33
2018-04-16T09:43:21.671Z,22.13
2018-04-16T09:45:49.837Z,23.60
2018-04-16T09:48:17.997Z,23.53
2018-04-16T09:50:46.183Z,22.73
2018-04-16T09:53:14.371Z,23.13
2018-04-16T09:55:42.591Z,22.60
2018-04-16T09:58:10.739Z,21.97
2018-04-16T10:00:44.897Z,22.10
2018-04-16T10:03:17.122Z,21.97
2018-04-16T10:05:45.364Z,22.57
2018-04-16T10:08:13.523Z,21.57
2018-04-16T10:10:41.659Z,22.80
2018-04-16T10:13:09.893Z,21.83
2018-04-16T10:15:38.058Z,23.07
2018-04-16T10:18:06.273Z,22.17
2018-04-16T10:20:34.405Z,23.70
2018-04-16T10:23:02.560Z,21.40
2018-04-16T10:25:30.739Z,20.40
2018-04-16T10:27:58.903Z,21.23
2018-04-16T10:30:27.058Z,20.20
2018-04-16T10:32:55.208Z,21.53
2018-04-16T10:35:23.384Z,21.17
2018-04-16T10:37:51.516Z,21.17
2018-04-16T10:40:19.680Z,21.17
2018-04-16T10:42:47.841Z,19.57
2018-04-16T10:45:16.007Z,20.13
2018-04-16T10:47:44.134Z,17.90
2018-04-16T10:50:12.316Z,18.27
2018-04-16T10:52:40.558Z,16.67
2018-04-16T10:55:08.711Z,16.97
2018-04-16T10:57:36.956Z,18.07
2018-04-16T11:00:05.180Z,18.60
2018-04-16T11:02:32.424Z,18.40
2018-04-16T11:04:59.060Z,19.10
2018-04-16T11:07:25.562Z,20.30
2018-04-16T11:09:52.063Z,20.43
2018-04-16T11:12:19.320Z,17.60
2018-04-16T11:14:46.537Z,18.37
2018-04-16T11:17:13.043Z,19.17
2018-04-16T11:19:39.547Z,18.97
2018-04-16T11:22:06.821Z,18.23
2018-04-16T11:24:34.091Z,20.10
2018-04-16T11:27:00.622Z,18.63
2018-04-16T11:29:27.193Z,17.70
2018-04-16T11:31:53.672Z,17.93
2018-04-16T11:34:20.208Z,15.83
2018-04-16T11:36:46.688Z,15.40
2018-04-16T11:39:13.219Z,15.57
2018-04-16T11:41:39.712Z,14.47
2018-04-16T11:44:06.245Z,16.07
2018-04-16T11:46:32.719Z,15.20
2018-04-16T11:48:59.974Z,14.00
2018-04-16T11:51:27.277Z,13.43
2018-04-16T11:53:53.796Z,13.40
2018-04-16T11:56:20.313Z,14.00
2018-04-16T11:58:47.585Z,15.23
2018-04-16T12:01:14.081Z,14.03
2018-04-16T12:03:40.631Z,15.37
2018-04-16T12:06:07.132Z,14.23
2018-04-16T12:08:33.646Z,13.30
2018-04-16T12:11:00.223Z,13.87
2018-04-16T12:13:26.729Z,13.17
2018-04-16T12:15:53.208Z,14.77
2018-04-16T12:18:19.777Z,16.67
2018-04-16T12:20:46.993Z,15.87
2018-04-16T12:23:13.501Z,16.50
2018-04-16T12:25:40.029Z,17.23
2018-04-16T12:28:06.542Z,16.13
2018-04-16T12:30:33.781Z,15.40
2018-04-16T12:33:00.370Z,17.03
2018-04-16T12:35:26.906Z,17.37
2018-04-16T12:37:53.447Z,15.87
2018-04-16T12:40:19.961Z,18.83
2018-04-16T12:42:47.225Z,17.33
2018-04-16T12:45:14.455Z,17.37
2018-04-16T12:47:41.004Z,16.07
2018-04-16T12:50:07.481Z,15.63
2018-04-16T12:52:33.997Z,17.20
2018-04-16T12:55:01.291Z,17.10
2018-04-16T12:57:27.820Z,16.50
2018-04-16T12:59:54.700Z,17.63
2018-04-16T13:02:21.195Z,17.90
2018-04-16T13:04:47.692Z,17.43
2018-04-16T13:07:14.224Z,16.70
2018-04-16T13:09:40.751Z,17.80
2018-04-16T13:12:07.274Z,17.83
2018-04-16T13:14:33.804Z,20.50
2018-04-16T13:17:00.422Z,17.17
2018-04-16T13:19:27.666Z,17.50
2018-04-16T13:21:54.930Z,19.13
2018-04-16T13:24:22.187Z,17.33
2018-04-16T13:26:49.448Z,16.80
2018-04-16T13:29:15.984Z,16.40
2018-04-16T13:31:43.265Z,18.10
2018-04-16T13:34:09.776Z,17.67
2018-04-16T13:36:37.008Z,17.07
2018-04-16T13:39:03.649Z,16.10
2018-04-16T13:41:30.152Z,16.27
2018-04-16T13:43:56.662Z,16.80
2018-04-16T13:46:23.912Z,16.30
2018-04-16T13:48:51.154Z,17.30
2018-04-16T13:51:17.691Z,15.60
2018-04-16T13:53:44.310Z,16.70
2018-04-16T13:56:10.842Z,16.90
2018-04-16T13:58:37.360Z,15.97
2018-04-16T14:01:03.885Z,16.87
2018-04-16T14:03:30.418Z,16.40
2018-04-16T14:05:56.927Z,16.37
2018-04-16T14:08:24.347Z,16.00
2018-04-16T14:10:50.843Z,15.60
2018-04-16T14:13:18.080Z,16.20
2018-04-16T14:15:44.569Z,16.77
2018-04-16T14:18:11.079Z,16.57
2018-04-16T14:20:38.309Z,14.37
2018-04-16T14:23:04.832Z,16.37
2018-04-16T14:25:31.305Z,18.00
2018-04-16T14:27:59.042Z,16.47
2018-04-16T14:30:25.581Z,18.47
2018-04-16T14:32:52.119Z,17.80
2018-04-16T14:35:18.629Z,17.00
2018-04-16T14:37:45.175Z,16.63
2018-04-16T14:40:11.678Z,18.87
2018-04-16T14:42:38.944Z,16.90
2018-04-16T14:45:05.476Z,16.80
2018-04-16T14:47:32.805Z,17.50
2018-04-16T14:49:59.312Z,18.30
2018-04-16T14:52:25.833Z,18.13
2018-04-16T14:54:52.376Z,18.00
2018-04-16T14:57:18.921Z,17.40
2018-04-16T14:59:45.439Z,16.50
2018-04-16T15:02:11.956Z,18.67
2018-04-16T15:04:39.259Z,17.83
2018-04-16T15:07:05.781Z,16.50
2018-04-16T15:09:32.331Z,17.73
2018-04-16T15:11:58.816Z,18.00
2018-04-16T15:14:25.354Z,17.53
2018-04-16T15:16:51.864Z,20.93
2018-04-16T15:19:18.365Z,19.33
2018-04-16T15:21:44.904Z,20.53
2018-04-16T15:24:11.423Z,20.90
2018-04-16T15:26:38.678Z,21.07
2018-04-16T15:29:05.953Z,20.23
2018-04-16T15:31:33.199Z,21.73
2018-04-16T15:34:00.427Z,21.50
2018-04-16T15:36:26.980Z,21.83
2018-04-16T15:38:55.102Z,22.40
2018-04-16T15:41:21.607Z,19.70
2018-04-16T15:43:49.597Z,21.10
2018-04-16T15:46:16.107Z,21.60
2018-04-16T15:48:43.354Z,19.57
2018-04-16T15:51:09.898Z,18.60
2018-04-16T15:53:36.425Z,20.67
2018-04-16T15:56:02.923Z,21.00
2018-04-16T15:58:29.482Z,26.73
2018-04-16T16:00:55.971Z,25.87
2018-04-16T16:03:24.156Z,25.73
2018-04-16T16:05:52.395Z,22.00
2018-04-16T16:08:20.541Z,20.07
2018-04-16T16:10:48.765Z,22.87
2018-04-16T16:13:15.321Z,23.37
2018-04-16T16:15:42.651Z,19.33
2018-04-16T16:18:10.826Z,18.80
2018-04-16T16:20:39.014Z,18.93
2018-04-16T16:23:07.200Z,18.53
2018-04-16T16:25:35.359Z,18.00
2018-04-16T16:28:03.590Z,17.77
2018-04-16T16:30:32.100Z,17.80
2018-04-16T16:33:00.250Z,18.17
2018-04-16T16:35:27.568Z,14.67
2018-04-16T16:37:55.715Z,13.97
2018-04-16T16:40:23.898Z,17.10
2018-04-16T16:42:52.096Z,14.93
2018-04-16T16:45:20.298Z,16.00
2018-04-16T16:47:47.209Z,17.27
2018-04-16T16:50:15.441Z,19.67
2018-04-16T16:52:43.584Z,19.23
2018-04-16T16:55:12.629Z,15.67
2018-04-16T16:57:40.782Z,16.93
2018-04-16T17:00:08.948Z,17.27
2018-04-16T17:02:37.137Z,16.43
2018-04-16T17:05:05.627Z,17.23
2018-04-16T17:07:33.850Z,14.93
2018-04-16T17:10:02.038Z,12.50
2018-04-16T17:12:30.208Z,14.17
2018-04-16T17:14:58.357Z,13.17
2018-04-16T17:17:26.539Z,14.50
2018-04-16T17:19:54.747Z,13.23
2018-04-16T17:22:22.900Z,14.67
2018-04-16T17:24:51.093Z,11.00
2018-04-16T17:27:19.268Z,12.10
2018-04-16T17:29:47.449Z,11.77
2018-04-16T17:32:15.581Z,11.50
2018-04-16T17:34:43.764Z,12.70
2018-04-16T17:37:11.969Z,15.57
2018-04-16T17:39:40.148Z,14.40
2018-04-16T17:42:08.355Z,12.60
2018-04-16T17:44:36.520Z,14.00
2018-04-16T17:47:04.667Z,14.77
2018-04-16T17:49:32.877Z,14.53
2018-04-16T17:52:03.061Z,15.83
2018-04-16T17:54:31.285Z,15.20
2018-04-16T17:56:59.446Z,15.10
2018-04-16T17:59:27.651Z,14.80
2018-04-16T18:01:55.855Z,14.83
2018-04-16T18:04:26.101Z,15.53
2018-04-16T18:06:54.291Z,15.90
2018-04-16T18:09:22.448Z,16.07
2018-04-16T18:11:51.125Z,16.50
2018-04-16T18:14:19.316Z,15.30
2018-04-16T18:16:47.447Z,17.10
2018-04-16T18:19:15.622Z,16.40
2018-04-16T18:21:43.803Z,16.90
2018-04-16T18:24:11.955Z,16.30
2018-04-16T18:26:40.126Z,15.13
2018-04-16T18:29:08.306Z,15.83
2018-04-16T18:31:36.442Z,15.77
2018-04-16T18:34:04.617Z,13.80
2018-04-16T18:36:32.747Z,15.97
2018-04-16T18:39:00.953Z,15.40
2018-04-16T18:41:29.163Z,14.47
2018-04-16T18:43:57.318Z,14.73
2018-04-16T18:46:25.469Z,16.33
2018-04-16T18:48:53.634Z,16.80
2018-04-16T18:51:21.793Z,15.40
2018-04-16T18:53:49.951Z,15.40
2018-04-16T18:56:18.160Z,16.57
2018-04-16T18:58:46.295Z,17.33
2018-04-16T19:01:14.550Z,17.67
2018-04-16T19:03:42.679Z,18.07
2018-04-16T19:06:10.883Z,22.53
2018-04-16T19:08:39.048Z,20.93
2018-04-16T19:11:07.279Z,20.47
2018-04-16T19:13:35.444Z,20.47
2018-04-16T19:16:03.126Z,18.27
2018-04-16T19:18:31.308Z,18.53
2018-04-16T19:21:04.785Z,17.10
2018-04-16T19:23:32.089Z,16.00
2018-04-16T19:25:59.388Z,13.03
2018-04-16T19:28:25.890Z,14.17
2018-04-16T19:30:53.218Z,12.80
2018-04-16T19:33:25.728Z,13.23
2018-04-16T19:35:53.052Z,11.80
2018-04-16T19:38:19.555Z,10.27
2018-04-16T19:40:46.082Z,10.30
2018-04-16T19:43:12.807Z,10.50
2018-04-16T19:45:40.147Z,10.30
2018-04-16T19:48:06.717Z,10.60
2018-04-16T19:50:34.029Z,11.80
2018-04-16T19:53:00.567Z,10.70
2018-04-16T19:55:27.119Z,10.97
2018-04-16T19:57:59.629Z,11.17
2018-04-16T20:00:27.276Z,12.73
2018-04-16T20:02:59.874Z,11.40
2018-04-16T20:05:27.171Z,11.30
2018-04-16T20:07:53.764Z,10.80
2018-04-16T20:10:21.802Z,10.90
2018-04-16T20:12:48.296Z,11.10
2018-04-16T20:15:15.550Z,11.63
2018-04-16T20:17:42.848Z,11.67
2018-04-16T20:20:09.381Z,11.10
2018-04-16T20:22:35.929Z,9.47
2018-04-16T20:25:02.569Z,9.63
2018-04-16T20:27:29.094Z,8.87
2018-04-16T20:29:55.601Z,9.77
2018-04-16T20:32:22.902Z,8.80
2018-04-16T20:34:49.451Z,8.73
2018-04-16T20:37:15.944Z,8.93
2018-04-16T20:39:43.215Z,7.87
2018-04-16T20:42:09.797Z,7.57
2018-04-16T20:44:36.353Z,8.80
2018-04-16T20:47:02.863Z,6.83
2018-04-16T20:49:29.369Z,6.60
2018-04-16T20:51:55.884Z,6.47
2018-04-16T20:54:23.152Z,6.50
2018-04-16T20:56:50.453Z,6.10
2018-04-16T20:59:16.951Z,6.90
2018-04-16T21:01:44.212Z,8.43
2018-04-16T21:04:10.721Z,8.13
2018-04-16T21:06:37.378Z,7.30
2018-04-16T21:11:37.773Z,8.70
2018-04-16T21:14:04.268Z,9.13
2018-04-16T21:16:31.556Z,10.53
2018-04-16T21:18:58.045Z,8.07
2018-04-16T21:21:24.586Z,7.13
2018-04-16T21:23:51.060Z,8.93
2018-04-16T21:26:17.572Z,9.00
2018-04-16T21:28:44.123Z,7.20
2018-04-16T21:31:11.421Z,7.00
2018-04-16T21:33:37.909Z,6.73
2018-04-16T21:36:05.185Z,7.30
2018-04-16T21:38:31.719Z,6.30
2018-04-16T21:40:59.016Z,6.43
2018-04-16T21:43:25.502Z,7.40
2018-04-16T21:45:52.784Z,7.03
2018-04-16T21:48:19.296Z,6.90
2018-04-16T21:50:46.569Z,6.60
2018-04-16T21:53:13.151Z,6.07
2018-04-16T21:55:39.687Z,6.60
2018-04-16T21:58:06.197Z,7.90
2018-04-16T22:00:32.854Z,7.80
2018-04-16T22:02:59.330Z,8.07
2018-04-16T22:05:25.938Z,7.40
2018-04-16T22:07:52.468Z,6.93
2018-04-16T22:10:18.981Z,6.77
2018-04-16T22:12:46.333Z,6.60
2018-04-16T22:15:13.612Z,6.00
2018-04-16T22:17:40.131Z,6.13
2018-04-16T22:20:07.363Z,7.20
2018-04-16T22:22:34.096Z,7.07
2018-04-16T22:25:00.656Z,6.90
2018-04-16T22:27:27.199Z,6.60
2018-04-16T22:29:53.798Z,6.70
2018-04-16T22:32:20.274Z,7.33
2018-04-16T22:34:46.826Z,6.50
2018-04-16T22:37:14.089Z,7.57
2018-04-16T22:39:41.428Z,7.10
2018-04-16T22:42:07.917Z,6.93
2018-04-16T22:44:34.425Z,7.77
2018-04-16T22:47:01.653Z,7.27
2018-04-16T22:49:28.169Z,7.10
2018-04-16T22:51:54.737Z,7.27
2018-04-16T22:54:21.300Z,8.10
2018-04-16T22:56:48.517Z,8.50
2018-04-16T22:59:15.056Z,6.20
2018-04-16T23:01:41.552Z,7.60
2018-04-16T23:04:08.036Z,6.40
2018-04-16T23:06:34.557Z,7.60
2018-04-16T23:09:01.058Z,6.90
2018-04-16T23:11:28.282Z,7.40
2018-04-16T23:13:54.810Z,7.60
2018-04-16T23:16:21.280Z,7.60
2018-04-16T23:18:48.538Z,6.93
2018-04-16T23:21:15.812Z,7.63
2018-04-16T23:23:42.300Z,8.00
2018-04-16T23:26:08.791Z,7.87
2018-04-16T23:28:35.302Z,7.60
2018-04-16T23:31:02.519Z,7.53
2018-04-16T23:33:28.997Z,7.60
2018-04-16T23:35:56.245Z,6.80
2018-04-16T23:38:22.738Z,6.00
2018-04-16T23:40:49.210Z,5.30
2018-04-16T23:43:15.725Z,5.70
2018-04-16T23:45:42.237Z,6.70
2018-04-16T23:48:08.731Z,9.00
2018-04-16T23:50:35.277Z,7.73
2018-04-16T23:53:01.799Z,7.47
2018-04-16T23:55:28.296Z,9.33
2018-04-16T23:57:54.829Z,8.20
